Aviation Digital Data Service (ADDS)

Output produced by METARs form (0605 UTC 19 March 2019)
found at http://www.aviationweather.gov/metar/data/
 
Forecast for: OIAW (AHWAZ , IR)
Text: TAF OIAW 190530Z 1906/2018 30008KT 7000 NSC
Forecast period: 0600 UTC 19 March 2019 to 1800 UTC 20 March 2019
Forecast type: FROM: standard forecast or significant change
Winds: from the WNW (300 degrees) at 9 MPH (8 knots; 4.1 m/s)
Visibility: 4 miles (7 km)
Ceiling: unknown
Clouds: missing
Weather: no significant weather forecast for this period
Text: TEMPO 1908/1914 30014KT
Forecast period: 0800 to 1400 UTC 19 March 2019
Forecast type: TEMPORARY: The following changes expected for less than half the time period
Winds: from the WNW (300 degrees) at 16 MPH (14 knots; 7.2 m/s)
Visibility: missing
Ceiling: unknown
Clouds: missing
Weather: no significant weather forecast for this period